sensor_id;sensor_type;location;lat;lon;timestamp;pressure;altitude;pressure_sealevel;temperature;humidity
71105;BME280;58760;48.716;8.962;2023-06-14T00:00:30;95973.56;;;15.08;50.45
71105;BME280;58760;48.716;8.962;2023-06-14T00:02:56;95977.28;;;15.01;50.37
71105;BME280;58760;48.716;8.962;2023-06-14T00:05:22;95983.97;;;14.85;50.74
71105;BME280;58760;48.716;8.962;2023-06-14T00:07:48;95989.81;;;14.62;51.12
71105;BME280;58760;48.716;8.962;2023-06-14T00:10:14;95993.13;;;14.51;51.84
71105;BME280;58760;48.716;8.962;2023-06-14T00:12:40;95991.66;;;14.55;51.01
71105;BME280;58760;48.716;8.962;2023-06-14T00:15:07;95976.84;;;14.66;50.12
71105;BME280;58760;48.716;8.962;2023-06-14T00:17:35;95982.38;;;14.71;49.60
71105;BME280;58760;48.716;8.962;2023-06-14T00:20:03;95978.22;;;14.82;49.67
71105;BME280;58760;48.716;8.962;2023-06-14T00:22:30;95988.28;;;14.80;50.90
71105;BME280;58760;48.716;8.962;2023-06-14T00:24:56;95983.56;;;14.82;51.39
71105;BME280;58760;48.716;8.962;2023-06-14T00:27:22;95989.25;;;14.28;52.37
71105;BME280;58760;48.716;8.962;2023-06-14T00:29:47;95992.16;;;14.13;52.73
71105;BME280;58760;48.716;8.962;2023-06-14T00:32:13;95991.94;;;14.08;52.90
71105;BME280;58760;48.716;8.962;2023-06-14T00:34:38;95987.88;;;13.79;53.88
71105;BME280;58760;48.716;8.962;2023-06-14T00:37:03;95989.94;;;13.57;54.56
71105;BME280;58760;48.716;8.962;2023-06-14T00:39:29;95982.75;;;13.51;55.61
71105;BME280;58760;48.716;8.962;2023-06-14T00:41:54;95986.66;;;13.55;54.07
71105;BME280;58760;48.716;8.962;2023-06-14T00:44:20;95988.28;;;13.56;53.51
71105;BME280;58760;48.716;8.962;2023-06-14T00:46:46;95987.69;;;13.54;55.51
71105;BME280;58760;48.716;8.962;2023-06-14T00:49:14;95984.78;;;13.56;54.88
71105;BME280;58760;48.716;8.962;2023-06-14T00:51:41;95996.09;;;13.51;54.88
71105;BME280;58760;48.716;8.962;2023-06-14T00:54:06;95990.75;;;13.51;54.74
71105;BME280;58760;48.716;8.962;2023-06-14T00:56:32;95990.75;;;13.45;54.69
71105;BME280;58760;48.716;8.962;2023-06-14T00:58:57;95996.50;;;13.48;54.21
71105;BME280;58760;48.716;8.962;2023-06-14T01:01:23;95992.00;;;13.42;55.37
71105;BME280;58760;48.716;8.962;2023-06-14T01:03:49;95994.41;;;13.31;56.04
71105;BME280;58760;48.716;8.962;2023-06-14T01:06:21;95987.84;;;13.20;55.60
71105;BME280;58760;48.716;8.962;2023-06-14T01:09:00;95989.03;;;13.11;55.77
71105;BME280;58760;48.716;8.962;2023-06-14T01:11:32;95991.66;;;13.04;55.75
71105;BME280;58760;48.716;8.962;2023-06-14T01:13:59;95993.50;;;13.04;56.11
71105;BME280;58760;48.716;8.962;2023-06-14T01:16:27;95995.16;;;13.05;55.86
71105;BME280;58760;48.716;8.962;2023-06-14T01:18:53;95998.03;;;13.03;55.95
71105;BME280;58760;48.716;8.962;2023-06-14T01:21:25;95987.78;;;13.00;55.77
71105;BME280;58760;48.716;8.962;2023-06-14T01:23:51;95988.56;;;13.01;55.97
71105;BME280;58760;48.716;8.962;2023-06-14T01:26:19;95987.78;;;13.00;55.63
71105;BME280;58760;48.716;8.962;2023-06-14T01:28:45;95991.06;;;13.02;55.56
71105;BME280;58760;48.716;8.962;2023-06-14T01:31:17;95990.63;;;12.99;55.76
71105;BME280;58760;48.716;8.962;2023-06-14T01:33:43;95995.97;;;12.99;56.50
71105;BME280;58760;48.716;8.962;2023-06-14T01:36:09;95994.31;;;12.98;56.08
71105;BME280;58760;48.716;8.962;2023-06-14T01:38:36;95994.31;;;12.98;55.61
71105;BME280;58760;48.716;8.962;2023-06-14T01:41:02;96001.09;;;13.00;55.77
71105;BME280;58760;48.716;8.962;2023-06-14T01:43:30;95998.81;;;12.97;55.68
71105;BME280;58760;48.716;8.962;2023-06-14T01:45:56;96000.06;;;13.01;57.81
71105;BME280;58760;48.716;8.962;2023-06-14T01:48:23;96001.31;;;13.05;56.37
71105;BME280;58760;48.716;8.962;2023-06-14T01:50:49;95994.13;;;13.06;56.15
71105;BME280;58760;48.716;8.962;2023-06-14T01:53:15;95993.91;;;13.07;56.41
71105;BME280;58760;48.716;8.962;2023-06-14T01:55:41;95998.88;;;13.10;56.22
71105;BME280;58760;48.716;8.962;2023-06-14T01:58:08;95997.06;;;13.18;56.66
71105;BME280;58760;48.716;8.962;2023-06-14T02:00:34;96000.97;;;13.22;56.96
71105;BME280;58760;48.716;8.962;2023-06-14T02:03:00;95985.81;;;13.22;56.12
71105;BME280;58760;48.716;8.962;2023-06-14T02:05:25;95995.41;;;13.10;56.76
71105;BME280;58760;48.716;8.962;2023-06-14T02:07:51;95998.81;;;13.04;57.80
71105;BME280;58760;48.716;8.962;2023-06-14T02:10:18;95997.41;;;13.08;58.18
71105;BME280;58760;48.716;8.962;2023-06-14T02:12:44;96001.09;;;13.00;57.86
71105;BME280;58760;48.716;8.962;2023-06-14T02:15:10;95995.34;;;12.97;58.88
71105;BME280;58760;48.716;8.962;2023-06-14T02:17:42;95996.31;;;12.83;57.95
71105;BME280;58760;48.716;8.962;2023-06-14T02:20:08;95993.03;;;12.74;58.58
71105;BME280;58760;48.716;8.962;2023-06-14T02:22:34;95995.47;;;12.76;59.46
71105;BME280;58760;48.716;8.962;2023-06-14T02:24:59;95993.81;;;12.75;59.14
71105;BME280;58760;48.716;8.962;2023-06-14T02:27:25;95993.00;;;12.68;59.34
71105;BME280;58760;48.716;8.962;2023-06-14T02:29:50;96003.22;;;12.64;59.17
71105;BME280;58760;48.716;8.962;2023-06-14T02:32:16;96000.31;;;12.59;58.38
71105;BME280;58760;48.716;8.962;2023-06-14T02:34:41;96000.75;;;12.63;59.30
71105;BME280;58760;48.716;8.962;2023-06-14T02:37:07;96003.19;;;12.57;60.40
71105;BME280;58760;48.716;8.962;2023-06-14T02:39:32;96003.59;;;12.54;59.77
71105;BME280;58760;48.716;8.962;2023-06-14T02:41:57;95999.69;;;12.50;59.20
71105;BME280;58760;48.716;8.962;2023-06-14T02:44:26;96001.31;;;12.51;59.04
71105;BME280;58760;48.716;8.962;2023-06-14T02:46:55;96005.97;;;12.43;59.33
71105;BME280;58760;48.716;8.962;2023-06-14T02:49:21;95998.41;;;12.46;59.88
71105;BME280;58760;48.716;8.962;2023-06-14T02:51:46;95992.69;;;12.49;58.34
71105;BME280;58760;48.716;8.962;2023-06-14T02:54:12;96000.44;;;12.38;58.38
71105;BME280;58760;48.716;8.962;2023-06-14T02:56:37;95997.47;;;12.26;58.74
71105;BME280;58760;48.716;8.962;2023-06-14T02:59:02;95992.34;;;12.18;59.44
71105;BME280;58760;48.716;8.962;2023-06-14T03:01:28;95988.19;;;12.09;59.37
71105;BME280;58760;48.716;8.962;2023-06-14T03:04:02;95996.72;;;11.98;59.43
71105;BME280;58760;48.716;8.962;2023-06-14T03:06:29;95999.72;;;11.88;59.85
71105;BME280;58760;48.716;8.962;2023-06-14T03:08:56;95993.13;;;11.84;60.40
71105;BME280;58760;48.716;8.962;2023-06-14T03:11:27;95990.91;;;11.88;61.11
71105;BME280;58760;48.716;8.962;2023-06-14T03:13:53;95989.16;;;12.01;61.47
71105;BME280;58760;48.716;8.962;2023-06-14T03:16:20;95989.16;;;12.01;60.38
71105;BME280;58760;48.716;8.962;2023-06-14T03:18:48;95991.88;;;12.08;61.36
71105;BME280;58760;48.716;8.962;2023-06-14T03:21:14;95999.63;;;12.10;61.33
71105;BME280;58760;48.716;8.962;2023-06-14T03:23:41;96004.59;;;12.13;61.22
71105;BME280;58760;48.716;8.962;2023-06-14T03:26:06;96008.03;;;12.13;61.93
71105;BME280;58760;48.716;8.962;2023-06-14T03:28:32;96009.31;;;12.17;61.08
71105;BME280;58760;48.716;8.962;2023-06-14T03:30:57;96017.25;;;12.11;60.78
71105;BME280;58760;48.716;8.962;2023-06-14T03:33:23;96008.59;;;12.02;60.47
71105;BME280;58760;48.716;8.962;2023-06-14T03:35:50;96019.03;;;12.03;60.77
71105;BME280;58760;48.716;8.962;2023-06-14T03:38:15;96018.06;;;12.11;60.67
71105;BME280;58760;48.716;8.962;2023-06-14T03:40:40;96011.75;;;12.12;61.54
71105;BME280;58760;48.716;8.962;2023-06-14T03:43:06;96022.78;;;12.09;60.32
71105;BME280;58760;48.716;8.962;2023-06-14T03:45:31;96029.66;;;12.03;60.57
71105;BME280;58760;48.716;8.962;2023-06-14T03:47:56;96018.19;;;11.96;60.50
71105;BME280;58760;48.716;8.962;2023-06-14T03:50:22;96028.19;;;11.94;60.18
71105;BME280;58760;48.716;8.962;2023-06-14T03:52:50;96026.16;;;11.96;60.33
71105;BME280;58760;48.716;8.962;2023-06-14T03:55:16;96027.22;;;12.02;60.50
71105;BME280;58760;48.716;8.962;2023-06-14T03:57:41;96030.44;;;11.97;60.54
71105;BME280;58760;48.716;8.962;2023-06-14T04:00:08;96032.06;;;11.92;60.66
71105;BME280;58760;48.716;8.962;2023-06-14T04:02:34;96030.41;;;11.91;61.29
71105;BME280;58760;48.716;8.962;2023-06-14T04:05:02;96041.03;;;11.91;61.37
71105;BME280;58760;48.716;8.962;2023-06-14T04:07:27;96047.00;;;11.93;61.03
71105;BME280;58760;48.716;8.962;2023-06-14T04:09:54;96041.88;;;11.91;60.87
71105;BME280;58760;48.716;8.962;2023-06-14T04:12:19;96051.28;;;11.94;60.99
71105;BME280;58760;48.716;8.962;2023-06-14T04:14:45;96048.63;;;11.94;61.04
71105;BME280;58760;48.716;8.962;2023-06-14T04:17:10;96047.84;;;12.00;60.86
71105;BME280;58760;48.716;8.962;2023-06-14T04:19:36;96059.78;;;12.11;61.26
71105;BME280;58760;48.716;8.962;2023-06-14T04:22:01;96053.91;;;12.15;60.59
71105;BME280;58760;48.716;8.962;2023-06-14T04:24:28;96059.47;;;12.20;60.55
71105;BME280;58760;48.716;8.962;2023-06-14T04:27:00;96055.84;;;12.28;60.22
71105;BME280;58760;48.716;8.962;2023-06-14T04:29:26;96055.88;;;12.34;60.06
71105;BME280;58760;48.716;8.962;2023-06-14T04:31:54;96060.84;;;12.44;60.09
71105;BME280;58760;48.716;8.962;2023-06-14T04:34:25;96071.13;;;12.53;59.96
71105;BME280;58760;48.716;8.962;2023-06-14T04:36:55;96065.25;;;12.58;59.82
71105;BME280;58760;48.716;8.962;2023-06-14T04:39:22;96053.41;;;12.67;59.95
71105;BME280;58760;48.716;8.962;2023-06-14T04:41:48;96056.75;;;12.82;59.17
71105;BME280;58760;48.716;8.962;2023-06-14T04:44:18;96056.63;;;13.03;58.19
71105;BME280;58760;48.716;8.962;2023-06-14T04:46:45;96057.50;;;13.17;57.33
71105;BME280;58760;48.716;8.962;2023-06-14T04:49:17;96063.69;;;13.24;57.33
71105;BME280;58760;48.716;8.962;2023-06-14T04:51:43;96063.94;;;13.36;57.35
71105;BME280;58760;48.716;8.962;2023-06-14T04:54:09;96058.22;;;13.45;56.85
71105;BME280;58760;48.716;8.962;2023-06-14T04:56:42;96071.97;;;13.55;56.63
71105;BME280;58760;48.716;8.962;2023-06-14T04:59:08;96068.69;;;13.67;56.50
71105;BME280;58760;48.716;8.962;2023-06-14T05:01:34;96064.59;;;13.77;55.95
71105;BME280;58760;48.716;8.962;2023-06-14T05:03:59;96071.59;;;13.85;59.21
71105;BME280;58760;48.716;8.962;2023-06-14T05:06:24;96068.72;;;13.93;55.28
71105;BME280;58760;48.716;8.962;2023-06-14T05:08:51;96074.06;;;14.06;54.38
71105;BME280;58760;48.716;8.962;2023-06-14T05:11:16;96070.38;;;14.13;54.35
71105;BME280;58760;48.716;8.962;2023-06-14T05:13:45;96074.03;;;14.26;54.26
71105;BME280;58760;48.716;8.962;2023-06-14T05:16:13;96073.66;;;14.35;54.13
71105;BME280;58760;48.716;8.962;2023-06-14T05:18:40;96076.72;;;14.45;54.01
71105;BME280;58760;48.716;8.962;2023-06-14T05:21:06;96072.59;;;14.56;53.92
71105;BME280;58760;48.716;8.962;2023-06-14T05:23:32;96074.84;;;14.65;53.75
71105;BME280;58760;48.716;8.962;2023-06-14T05:25:58;96074.22;;;14.63;53.50
71105;BME280;58760;48.716;8.962;2023-06-14T05:28:24;96072.75;;;14.74;54.41
71105;BME280;58760;48.716;8.962;2023-06-14T05:30:49;96076.00;;;14.83;52.86
71105;BME280;58760;48.716;8.962;2023-06-14T05:33:15;96078.66;;;14.89;52.43
71105;BME280;58760;48.716;8.962;2023-06-14T05:35:40;96082.75;;;14.98;52.67
71105;BME280;58760;48.716;8.962;2023-06-14T05:38:05;96087.41;;;15.09;52.17
71105;BME280;58760;48.716;8.962;2023-06-14T05:40:33;96090.06;;;15.16;52.32
71105;BME280;58760;48.716;8.962;2023-06-14T05:42:58;96095.19;;;15.24;51.94
71105;BME280;58760;48.716;8.962;2023-06-14T05:45:23;96084.88;;;15.34;51.69
71105;BME280;58760;48.716;8.962;2023-06-14T05:47:49;96088.09;;;15.43;51.64
71105;BME280;58760;48.716;8.962;2023-06-14T05:50:15;96090.16;;;15.54;51.60
71105;BME280;58760;48.716;8.962;2023-06-14T05:52:41;96091.28;;;15.64;50.97
71105;BME280;58760;48.716;8.962;2023-06-14T05:55:06;96089.63;;;15.70;50.88
71105;BME280;58760;48.716;8.962;2023-06-14T05:57:32;96086.69;;;15.78;50.96
71105;BME280;58760;48.716;8.962;2023-06-14T05:59:57;96084.34;;;15.88;50.55
71105;BME280;58760;48.716;8.962;2023-06-14T06:02:22;96094.84;;;15.90;50.86
71105;BME280;58760;48.716;8.962;2023-06-14T06:04:48;96095.59;;;15.97;50.65
71105;BME280;58760;48.716;8.962;2023-06-14T06:07:13;96098.03;;;16.05;51.08
71105;BME280;58760;48.716;8.962;2023-06-14T06:09:38;96092.19;;;16.14;49.99
71105;BME280;58760;48.716;8.962;2023-06-14T06:12:06;96097.81;;;16.31;49.58
71105;BME280;58760;48.716;8.962;2023-06-14T06:14:32;96097.31;;;16.41;49.07
71105;BME280;58760;48.716;8.962;2023-06-14T06:16:57;96096.81;;;16.50;49.31
71105;BME280;58760;48.716;8.962;2023-06-14T06:19:23;96107.09;;;16.53;48.38
71105;BME280;58760;48.716;8.962;2023-06-14T06:21:48;96102.28;;;16.62;48.52
71105;BME280;58760;48.716;8.962;2023-06-14T06:24:13;96111.34;;;16.67;48.29
71105;BME280;58760;48.716;8.962;2023-06-14T06:26:39;96101.97;;;16.77;48.29
71105;BME280;58760;48.716;8.962;2023-06-14T06:29:05;96101.59;;;16.91;47.63
71105;BME280;58760;48.716;8.962;2023-06-14T06:31:30;96102.94;;;17.00;48.32
71105;BME280;58760;48.716;8.962;2023-06-14T06:33:56;96110.69;;;17.08;48.52
71105;BME280;58760;48.716;8.962;2023-06-14T06:36:21;96101.22;;;17.06;48.85
71105;BME280;58760;48.716;8.962;2023-06-14T06:38:47;96102.69;;;17.20;48.76
71105;BME280;58760;48.716;8.962;2023-06-14T06:41:13;96109.63;;;17.27;48.40
71105;BME280;58760;48.716;8.962;2023-06-14T06:43:38;96112.84;;;17.36;48.42
71105;BME280;58760;48.716;8.962;2023-06-14T06:46:03;96124.28;;;17.43;48.19
71105;BME280;58760;48.716;8.962;2023-06-14T06:48:29;96124.91;;;17.45;48.54
71105;BME280;58760;48.716;8.962;2023-06-14T06:50:54;96120.94;;;17.48;48.08
71105;BME280;58760;48.716;8.962;2023-06-14T06:53:20;96126.00;;;17.56;47.53
71105;BME280;58760;48.716;8.962;2023-06-14T06:55:45;96125.34;;;17.60;48.00
71105;BME280;58760;48.716;8.962;2023-06-14T06:58:12;96126.53;;;17.64;47.78
71105;BME280;58760;48.716;8.962;2023-06-14T07:00:37;96127.94;;;17.67;48.17
71105;BME280;58760;48.716;8.962;2023-06-14T07:03:03;96126.81;;;17.74;47.88
71105;BME280;58760;48.716;8.962;2023-06-14T07:05:29;96131.63;;;17.84;47.67
71105;BME280;58760;48.716;8.962;2023-06-14T07:07:55;96129.91;;;17.90;47.22
71105;BME280;58760;48.716;8.962;2023-06-14T07:10:21;96123.94;;;17.88;47.77
71105;BME280;58760;48.716;8.962;2023-06-14T07:12:46;96133.31;;;17.97;46.48
71105;BME280;58760;48.716;8.962;2023-06-14T07:15:11;96130.44;;;18.10;44.92
71105;BME280;58760;48.716;8.962;2023-06-14T07:17:37;96129.63;;;18.21;44.18
71105;BME280;58760;48.716;8.962;2023-06-14T07:20:03;96140.50;;;18.26;43.96
71105;BME280;58760;48.716;8.962;2023-06-14T07:22:41;96149.41;;;18.38;43.44
71105;BME280;58760;48.716;8.962;2023-06-14T07:25:09;96143.56;;;18.41;43.55
71105;BME280;58760;48.716;8.962;2023-06-14T07:27:34;96141.31;;;18.56;44.19
71105;BME280;58760;48.716;8.962;2023-06-14T07:29:59;96144.09;;;18.61;44.77
71105;BME280;58760;48.716;8.962;2023-06-14T07:32:25;96158.59;;;18.60;44.32
71105;BME280;58760;48.716;8.962;2023-06-14T07:34:50;96150.31;;;18.62;43.67
71105;BME280;58760;48.716;8.962;2023-06-14T07:37:16;96155.22;;;18.65;43.58
71105;BME280;58760;48.716;8.962;2023-06-14T07:39:41;96153.47;;;18.70;43.14
71105;BME280;58760;48.716;8.962;2023-06-14T07:42:07;96156.75;;;18.72;43.65
71105;BME280;58760;48.716;8.962;2023-06-14T07:44:32;96167.50;;;18.72;43.55
71105;BME280;58760;48.716;8.962;2023-06-14T07:46:58;96153.13;;;18.78;43.46
71105;BME280;58760;48.716;8.962;2023-06-14T07:49:25;96160.00;;;18.86;42.93
71105;BME280;58760;48.716;8.962;2023-06-14T07:51:50;96168.56;;;18.95;43.27
71105;BME280;58760;48.716;8.962;2023-06-14T07:54:16;96161.19;;;19.02;42.66
71105;BME280;58760;48.716;8.962;2023-06-14T07:56:42;96168.41;;;19.13;42.64
71105;BME280;58760;48.716;8.962;2023-06-14T07:59:07;96158.25;;;19.15;43.03
71105;BME280;58760;48.716;8.962;2023-06-14T08:01:32;96158.59;;;19.30;42.42
71105;BME280;58760;48.716;8.962;2023-06-14T08:03:58;96163.84;;;19.37;41.77
71105;BME280;58760;48.716;8.962;2023-06-14T08:06:23;96159.28;;;19.37;41.65
71105;BME280;58760;48.716;8.962;2023-06-14T08:08:49;96170.03;;;19.37;41.19
71105;BME280;58760;48.716;8.962;2023-06-14T08:11:14;96167.97;;;19.27;42.65
71105;BME280;58760;48.716;8.962;2023-06-14T08:13:40;96163.84;;;19.25;43.36
71105;BME280;58760;48.716;8.962;2023-06-14T08:16:05;96166.75;;;19.35;42.41
71105;BME280;58760;48.716;8.962;2023-06-14T08:18:31;96157.75;;;19.53;43.52
71105;BME280;58760;48.716;8.962;2023-06-14T08:20:56;96170.53;;;19.34;42.68
71105;BME280;58760;48.716;8.962;2023-06-14T08:23:22;96172.28;;;19.40;43.82
71105;BME280;58760;48.716;8.962;2023-06-14T08:25:48;96174.81;;;19.58;43.22
71105;BME280;58760;48.716;8.962;2023-06-14T08:28:13;96174.47;;;19.55;42.98
71105;BME280;58760;48.716;8.962;2023-06-14T08:30:39;96169.75;;;19.73;42.55
71105;BME280;58760;48.716;8.962;2023-06-14T08:33:04;96176.53;;;19.76;41.39
71105;BME280;58760;48.716;8.962;2023-06-14T08:35:29;96178.78;;;19.67;41.92
71105;BME280;58760;48.716;8.962;2023-06-14T08:37:55;96179.66;;;19.84;42.00
71105;BME280;58760;48.716;8.962;2023-06-14T08:40:22;96176.50;;;19.88;41.86
71105;BME280;58760;48.716;8.962;2023-06-14T08:42:52;96173.91;;;19.93;41.82
71105;BME280;58760;48.716;8.962;2023-06-14T08:45:19;96179.88;;;19.95;41.52
71105;BME280;58760;48.716;8.962;2023-06-14T08:47:46;96175.63;;;19.99;41.51
71105;BME280;58760;48.716;8.962;2023-06-14T08:50:16;96188.78;;;19.95;41.58
71105;BME280;58760;48.716;8.962;2023-06-14T08:52:45;96179.53;;;19.91;41.38
71105;BME280;58760;48.716;8.962;2023-06-14T08:55:15;96189.19;;;20.04;41.13
71105;BME280;58760;48.716;8.962;2023-06-14T08:57:43;96187.72;;;20.24;41.19
71105;BME280;58760;48.716;8.962;2023-06-14T09:00:10;96187.34;;;20.32;41.72
71105;BME280;58760;48.716;8.962;2023-06-14T09:02:40;96188.75;;;20.35;41.61
71105;BME280;58760;48.716;8.962;2023-06-14T09:05:11;96186.63;;;20.37;41.50
71105;BME280;58760;48.716;8.962;2023-06-14T09:07:39;96184.66;;;20.49;40.99
71105;BME280;58760;48.716;8.962;2023-06-14T09:10:10;96183.03;;;20.65;40.39
71105;BME280;58760;48.716;8.962;2023-06-14T09:12:35;96182.06;;;20.54;40.96
71105;BME280;58760;48.716;8.962;2023-06-14T09:15:01;96183.78;;;20.60;41.09
71105;BME280;58760;48.716;8.962;2023-06-14T09:17:32;96197.28;;;20.60;39.81
71105;BME280;58760;48.716;8.962;2023-06-14T09:19:58;96181.50;;;20.69;40.86
71105;BME280;58760;48.716;8.962;2023-06-14T09:22:34;96186.16;;;20.73;41.23
71105;BME280;58760;48.716;8.962;2023-06-14T09:25:00;96179.31;;;20.82;41.74
71105;BME280;58760;48.716;8.962;2023-06-14T09:27:26;96187.22;;;20.89;40.49
71105;BME280;58760;48.716;8.962;2023-06-14T09:29:52;96187.44;;;21.04;39.99
71105;BME280;58760;48.716;8.962;2023-06-14T09:32:18;96192.53;;;21.01;40.10
71105;BME280;58760;48.716;8.962;2023-06-14T09:34:45;96187.28;;;20.94;40.95
71105;BME280;58760;48.716;8.962;2023-06-14T09:37:10;96185.84;;;21.20;40.52
71105;BME280;58760;48.716;8.962;2023-06-14T09:39:35;96191.38;;;21.30;40.38
71105;BME280;58760;48.716;8.962;2023-06-14T09:42:01;96197.44;;;21.20;40.21
71105;BME280;58760;48.716;8.962;2023-06-14T09:44:43;96191.88;;;21.27;39.24
71105;BME280;58760;48.716;8.962;2023-06-14T09:47:08;96192.69;;;21.27;37.77
71105;BME280;58760;48.716;8.962;2023-06-14T09:49:34;96192.38;;;21.24;38.46
71105;BME280;58760;48.716;8.962;2023-06-14T09:51:59;96189.31;;;21.37;39.37
71105;BME280;58760;48.716;8.962;2023-06-14T09:54:25;96197.66;;;21.52;38.13
71105;BME280;58760;48.716;8.962;2023-06-14T09:56:51;96192.84;;;21.59;37.25
71105;BME280;58760;48.716;8.962;2023-06-14T09:59:21;96192.25;;;21.52;37.71
71105;BME280;58760;48.716;8.962;2023-06-14T10:01:57;96190.28;;;21.69;37.60
71105;BME280;58760;48.716;8.962;2023-06-14T10:04:24;96179.88;;;21.78;35.76
71105;BME280;58760;48.716;8.962;2023-06-14T10:06:50;96190.41;;;21.79;35.57
71105;BME280;58760;48.716;8.962;2023-06-14T10:09:17;96181.06;;;21.87;32.92
71105;BME280;58760;48.716;8.962;2023-06-14T10:11:42;96190.38;;;21.96;35.31
71105;BME280;58760;48.716;8.962;2023-06-14T10:14:10;96183.03;;;21.92;35.50
71105;BME280;58760;48.716;8.962;2023-06-14T10:21:58;96181.03;;;22.04;33.15
71105;BME280;58760;48.716;8.962;2023-06-14T10:24:29;96182.63;;;22.05;33.27
71105;BME280;58760;48.716;8.962;2023-06-14T10:26:57;96185.47;;;22.15;33.49
71105;BME280;58760;48.716;8.962;2023-06-14T10:29:23;96171.47;;;21.96;34.53
71105;BME280;58760;48.716;8.962;2023-06-14T10:31:50;96181.88;;;21.87;34.29
71105;BME280;58760;48.716;8.962;2023-06-14T10:34:28;96186.88;;;22.17;32.85
71105;BME280;58760;48.716;8.962;2023-06-14T10:39:28;96193.38;;;22.48;30.67
71105;BME280;58760;48.716;8.962;2023-06-14T10:41:55;96182.16;;;22.34;31.12
71105;BME280;58760;48.716;8.962;2023-06-14T10:46:47;96182.34;;;22.55;33.87
71105;BME280;58760;48.716;8.962;2023-06-14T10:49:16;96191.44;;;22.70;31.09
71105;BME280;58760;48.716;8.962;2023-06-14T10:51:51;96191.84;;;22.84;31.29
71105;BME280;58760;48.716;8.962;2023-06-14T10:54:17;96180.63;;;22.70;29.47
71105;BME280;58760;48.716;8.962;2023-06-14T10:56:46;96176.22;;;22.64;30.55
71105;BME280;58760;48.716;8.962;2023-06-14T10:59:11;96175.91;;;22.87;31.28
71105;BME280;58760;48.716;8.962;2023-06-14T11:01:37;96179.38;;;22.83;31.27
71105;BME280;58760;48.716;8.962;2023-06-14T11:04:07;96170.13;;;23.11;31.90
71105;BME280;58760;48.716;8.962;2023-06-14T11:06:48;96176.75;;;23.30;33.40
71105;BME280;58760;48.716;8.962;2023-06-14T11:11:51;96171.34;;;23.35;31.69
71105;BME280;58760;48.716;8.962;2023-06-14T11:14:19;96172.84;;;23.16;30.80
71105;BME280;58760;48.716;8.962;2023-06-14T11:16:48;96164.09;;;22.99;31.27
71105;BME280;58760;48.716;8.962;2023-06-14T11:19:14;96172.22;;;22.99;30.65
71105;BME280;58760;48.716;8.962;2023-06-14T11:21:39;96174.97;;;23.09;30.69
71105;BME280;58760;48.716;8.962;2023-06-14T11:24:10;96174.25;;;23.60;32.54
71105;BME280;58760;48.716;8.962;2023-06-14T11:26:37;96176.59;;;23.99;31.87
71105;BME280;58760;48.716;8.962;2023-06-14T11:29:03;96172.53;;;24.06;31.22
71105;BME280;58760;48.716;8.962;2023-06-14T11:31:28;96172.69;;;23.74;31.74
71105;BME280;58760;48.716;8.962;2023-06-14T11:33:55;96170.78;;;23.75;31.41
71105;BME280;58760;48.716;8.962;2023-06-14T11:36:22;96173.56;;;23.90;30.72
71105;BME280;58760;48.716;8.962;2023-06-14T11:38:47;96169.38;;;24.24;30.91
71105;BME280;58760;48.716;8.962;2023-06-14T11:41:13;96158.56;;;24.44;30.92
71105;BME280;58760;48.716;8.962;2023-06-14T11:43:39;96162.63;;;24.32;31.01
71105;BME280;58760;48.716;8.962;2023-06-14T11:46:04;96166.09;;;24.17;31.73
71105;BME280;58760;48.716;8.962;2023-06-14T11:48:42;96172.34;;;24.23;31.28
71105;BME280;58760;48.716;8.962;2023-06-14T11:51:07;96168.91;;;23.80;31.33
71105;BME280;58760;48.716;8.962;2023-06-14T11:53:33;96170.16;;;23.58;31.39
71105;BME280;58760;48.716;8.962;2023-06-14T11:55:58;96161.19;;;23.52;31.51
71105;BME280;58760;48.716;8.962;2023-06-14T11:58:25;96167.22;;;23.64;31.04
71105;BME280;58760;48.716;8.962;2023-06-14T12:00:52;96152.34;;;24.74;30.34
71105;BME280;58760;48.716;8.962;2023-06-14T12:03:22;96152.41;;;25.89;28.04
71105;BME280;58760;48.716;8.962;2023-06-14T12:05:48;96158.09;;;26.51;27.46
71105;BME280;58760;48.716;8.962;2023-06-14T12:08:13;96167.28;;;26.99;26.45
71105;BME280;58760;48.716;8.962;2023-06-14T12:10:42;96156.28;;;27.10;25.90
71105;BME280;58760;48.716;8.962;2023-06-14T12:13:08;96157.19;;;27.58;26.73
71105;BME280;58760;48.716;8.962;2023-06-14T12:15:34;96164.06;;;28.02;25.43
71105;BME280;58760;48.716;8.962;2023-06-14T12:18:00;96159.91;;;27.05;26.09
71105;BME280;58760;48.716;8.962;2023-06-14T12:20:30;96164.34;;;26.03;26.80
71105;BME280;58760;48.716;8.962;2023-06-14T12:22:58;96157.72;;;26.63;26.54
71105;BME280;58760;48.716;8.962;2023-06-14T12:28:03;96157.59;;;26.83;26.20
71105;BME280;58760;48.716;8.962;2023-06-14T12:30:29;96155.44;;;27.43;25.22
71105;BME280;58760;48.716;8.962;2023-06-14T12:32:54;96144.53;;;27.43;25.58
71105;BME280;58760;48.716;8.962;2023-06-14T12:35:19;96155.50;;;27.67;25.19
71105;BME280;58760;48.716;8.962;2023-06-14T12:37:45;96142.81;;;27.99;24.87
71105;BME280;58760;48.716;8.962;2023-06-14T12:40:11;96145.38;;;28.15;24.19
71105;BME280;58760;48.716;8.962;2023-06-14T12:42:37;96143.47;;;28.34;24.79
71105;BME280;58760;48.716;8.962;2023-06-14T12:45:03;96154.06;;;28.35;24.35
71105;BME280;58760;48.716;8.962;2023-06-14T12:47:28;96142.78;;;28.23;24.12
71105;BME280;58760;48.716;8.962;2023-06-14T12:49:53;96140.50;;;28.49;24.17
71105;BME280;58760;48.716;8.962;2023-06-14T12:52:19;96146.41;;;28.56;23.69
71105;BME280;58760;48.716;8.962;2023-06-14T12:54:44;96147.13;;;28.43;24.04
71105;BME280;58760;48.716;8.962;2023-06-14T12:57:10;96139.63;;;28.72;24.66
71105;BME280;58760;48.716;8.962;2023-06-14T12:59:35;96139.34;;;29.06;23.20
71105;BME280;58760;48.716;8.962;2023-06-14T13:02:30;96146.16;;;29.68;22.36
71105;BME280;58760;48.716;8.962;2023-06-14T13:04:56;96138.16;;;29.72;22.49
71105;BME280;58760;48.716;8.962;2023-06-14T13:07:23;96152.25;;;29.65;23.24
71105;BME280;58760;48.716;8.962;2023-06-14T13:09:49;96143.75;;;29.94;22.64
71105;BME280;58760;48.716;8.962;2023-06-14T13:12:14;96149.72;;;30.09;22.73